createdAt,value
2022-11-12T00:00:12.314Z,8.21
2022-11-12T00:02:58.095Z,8.18
2022-11-12T00:05:45.418Z,8.16
2022-11-12T00:08:30.846Z,8.09
2022-11-12T00:11:16.116Z,8.17
2022-11-12T00:14:01.577Z,8.15
2022-11-12T00:16:46.838Z,8.17
2022-11-12T00:19:32.193Z,8.08
2022-11-12T00:22:17.467Z,8.04
2022-11-12T00:25:02.992Z,8.08
2022-11-12T00:27:48.050Z,8.05
2022-11-12T00:30:33.337Z,8.08
2022-11-12T00:33:18.690Z,7.98
2022-11-12T00:36:04.182Z,7.96
2022-11-12T00:38:49.338Z,7.97
2022-11-12T00:41:34.577Z,7.97
2022-11-12T00:44:19.909Z,7.94
2022-11-12T00:47:05.359Z,7.97
2022-11-12T00:49:50.672Z,7.94
2022-11-12T00:52:35.970Z,7.87
2022-11-12T00:55:21.369Z,7.83
2022-11-12T00:58:06.675Z,7.93
2022-11-12T01:00:52.026Z,7.93
2022-11-12T01:03:38.870Z,7.90
2022-11-12T01:06:24.750Z,7.89
2022-11-12T01:09:10.075Z,7.79
2022-11-12T01:11:55.364Z,7.90
2022-11-12T01:14:40.834Z,7.81
2022-11-12T01:17:26.053Z,7.76
2022-11-12T01:20:11.497Z,7.66
2022-11-12T01:22:56.841Z,7.74
2022-11-12T01:25:42.184Z,7.74
2022-11-12T01:28:29.377Z,7.72
2022-11-12T01:31:23.947Z,7.70
2022-11-12T01:34:09.897Z,7.55
2022-11-12T01:36:54.906Z,7.66
2022-11-12T01:39:40.236Z,7.64
2022-11-12T01:42:31.471Z,7.65
2022-11-12T01:45:16.408Z,7.63
2022-11-12T01:48:03.213Z,7.69
2022-11-12T01:50:48.618Z,7.71
2022-11-12T01:53:43.256Z,7.64
2022-11-12T01:56:31.491Z,7.55
2022-11-12T01:59:27.650Z,7.54
2022-11-12T02:02:12.845Z,7.57
2022-11-12T02:04:58.520Z,7.54
2022-11-12T02:07:46.745Z,7.60
2022-11-12T02:10:31.762Z,7.51
2022-11-12T02:13:36.583Z,7.47
2022-11-12T02:16:21.678Z,7.49
2022-11-12T02:19:11.115Z,7.59
2022-11-12T02:21:56.419Z,7.59
2022-11-12T02:24:41.751Z,7.56
2022-11-12T02:27:27.631Z,7.63
2022-11-12T02:30:12.956Z,7.51
2022-11-12T02:32:57.990Z,7.45
2022-11-12T02:35:43.485Z,7.51
2022-11-12T02:38:28.651Z,7.43
2022-11-12T02:41:14.041Z,7.50
2022-11-12T02:43:59.062Z,7.49
2022-11-12T02:46:44.314Z,7.37
2022-11-12T02:49:29.802Z,7.35
2022-11-12T02:52:15.113Z,7.41
2022-11-12T02:55:00.492Z,7.46
2022-11-12T02:57:45.743Z,7.40
2022-11-12T03:00:30.805Z,7.44
2022-11-12T03:03:16.235Z,7.43
2022-11-12T03:06:01.886Z,7.37
2022-11-12T03:08:46.957Z,7.32
2022-11-12T03:11:32.181Z,7.32
2022-11-12T03:14:17.363Z,7.27
2022-11-12T03:17:02.972Z,7.34
2022-11-12T03:19:47.997Z,7.36
2022-11-12T03:22:33.308Z,7.30
2022-11-12T03:25:18.611Z,7.19
2022-11-12T03:28:12.253Z,7.11
2022-11-12T03:31:00.040Z,7.20
2022-11-12T03:33:45.213Z,7.23
2022-11-12T03:36:31.087Z,7.22
2022-11-12T03:39:16.313Z,7.28
2022-11-12T03:42:01.601Z,7.26
2022-11-12T03:44:46.954Z,7.33
2022-11-12T03:47:32.293Z,7.36
2022-11-12T03:50:19.874Z,7.26
2022-11-12T03:53:05.137Z,7.32
2022-11-12T03:55:50.497Z,7.12
2022-11-12T03:58:35.628Z,7.33
2022-11-12T04:01:21.034Z,7.27
2022-11-12T04:04:06.254Z,7.30
2022-11-12T04:07:10.079Z,7.34
2022-11-12T04:09:55.187Z,7.29
2022-11-12T04:12:59.020Z,7.15
2022-11-12T04:15:44.304Z,7.30
2022-11-12T04:19:07.848Z,7.11
2022-11-12T04:21:55.944Z,7.15
2022-11-12T04:25:01.173Z,7.17
2022-11-12T04:27:46.385Z,7.11
2022-11-12T04:30:31.654Z,7.02
2022-11-12T04:33:16.729Z,6.97
2022-11-12T04:36:02.029Z,7.01
2022-11-12T04:38:47.266Z,7.14
2022-11-12T04:41:51.309Z,7.12
2022-11-12T04:44:55.096Z,7.06
2022-11-12T04:47:43.770Z,6.96
2022-11-12T04:50:29.275Z,6.97
2022-11-12T04:53:14.287Z,6.92
2022-11-12T04:55:59.982Z,7.02
2022-11-12T04:58:45.262Z,7.05
2022-11-12T05:01:30.567Z,7.03
2022-11-12T05:04:15.671Z,7.06
2022-11-12T05:07:01.588Z,7.07
2022-11-12T05:09:46.771Z,7.12
2022-11-12T05:12:32.034Z,7.03
2022-11-12T05:15:17.501Z,6.95
2022-11-12T05:18:02.817Z,6.89
2022-11-12T05:20:51.271Z,6.92
2022-11-12T05:23:36.761Z,7.02
2022-11-12T05:26:21.943Z,6.95
2022-11-12T05:29:08.964Z,6.88
2022-11-12T05:31:54.396Z,6.94
2022-11-12T05:34:40.362Z,6.97
2022-11-12T05:37:25.459Z,6.99
2022-11-12T05:40:11.297Z,6.95
2022-11-12T05:42:56.273Z,6.89
2022-11-12T05:45:45.124Z,6.88
2022-11-12T05:48:30.987Z,6.92
2022-11-12T05:51:16.752Z,6.95
2022-11-12T05:54:02.284Z,6.89
2022-11-12T05:56:47.653Z,6.95
2022-11-12T05:59:32.792Z,6.91
2022-11-12T06:02:18.067Z,6.86
2022-11-12T06:05:03.615Z,6.94
2022-11-12T06:07:48.970Z,6.96
2022-11-12T06:10:34.688Z,6.99
2022-11-12T06:13:21.448Z,6.95
2022-11-12T06:16:06.890Z,6.98
2022-11-12T06:18:52.208Z,7.00
2022-11-12T06:21:37.463Z,6.99
2022-11-12T06:24:23.332Z,6.80
2022-11-12T06:27:08.572Z,6.95
2022-11-12T06:29:53.679Z,6.96
2022-11-12T06:32:39.081Z,7.00
2022-11-12T06:35:24.292Z,6.89
2022-11-12T06:38:09.411Z,7.04
2022-11-12T06:40:54.621Z,7.02
2022-11-12T06:43:40.478Z,6.94
2022-11-12T06:46:25.721Z,6.97
2022-11-12T06:49:10.547Z,7.01
2022-11-12T06:51:56.100Z,7.12
2022-11-12T06:54:41.695Z,7.09
2022-11-12T06:57:26.697Z,7.07
2022-11-12T07:00:12.478Z,6.99
2022-11-12T07:02:57.600Z,6.87
2022-11-12T07:05:42.999Z,6.96
2022-11-12T07:08:28.502Z,7.04
2022-11-12T07:11:14.029Z,7.10
2022-11-12T07:13:59.257Z,7.08
2022-11-12T07:16:44.503Z,7.12
2022-11-12T07:19:29.957Z,7.09
2022-11-12T07:22:15.081Z,7.16
2022-11-12T07:25:00.639Z,7.26
2022-11-12T07:27:45.824Z,7.31
2022-11-12T07:30:31.199Z,7.39
2022-11-12T07:33:16.489Z,7.37
2022-11-12T07:36:11.022Z,7.40
2022-11-12T07:38:56.381Z,7.32
2022-11-12T07:41:41.487Z,7.35
2022-11-12T07:44:26.773Z,7.47
2022-11-12T07:47:12.094Z,7.43
2022-11-12T07:49:57.373Z,7.46
2022-11-12T07:52:42.818Z,7.51
2022-11-12T07:55:27.943Z,7.56
2022-11-12T07:58:13.044Z,7.51
2022-11-12T08:00:58.721Z,7.53
2022-11-12T08:03:43.741Z,7.54
2022-11-12T08:06:30.412Z,7.66
2022-11-12T08:09:15.407Z,7.64
2022-11-12T08:12:00.618Z,7.64
2022-11-12T08:14:45.870Z,7.77
2022-11-12T08:17:31.021Z,7.74
2022-11-12T08:20:16.383Z,7.72
2022-11-12T08:23:01.675Z,7.83
2022-11-12T08:25:46.938Z,7.76
2022-11-12T08:28:34.023Z,7.88
2022-11-12T08:31:21.290Z,7.83
2022-11-12T08:34:12.530Z,7.76
2022-11-12T08:36:57.644Z,7.89
2022-11-12T08:39:42.903Z,7.98
2022-11-12T08:42:28.277Z,8.02
2022-11-12T08:45:13.641Z,8.08
2022-11-12T08:48:00.195Z,8.11
2022-11-12T08:50:45.043Z,8.12
2022-11-12T08:53:30.969Z,8.24
2022-11-12T08:56:15.981Z,8.28
2022-11-12T08:59:05.042Z,8.24
2022-11-12T09:01:52.772Z,8.26
2022-11-12T09:04:37.902Z,8.25
2022-11-12T09:07:48.763Z,8.19
2022-11-12T09:10:29.087Z,8.26
2022-11-12T09:13:14.356Z,8.17
2022-11-12T09:16:04.606Z,8.19
2022-11-12T09:18:49.853Z,8.21
2022-11-12T09:21:35.187Z,8.20
2022-11-12T09:24:20.535Z,8.25
2022-11-12T09:27:05.908Z,8.26
2022-11-12T09:29:51.051Z,8.29
2022-11-12T09:32:36.337Z,8.36
2022-11-12T09:35:22.491Z,8.44
2022-11-12T09:38:07.491Z,8.48
2022-11-12T09:40:52.728Z,8.48
2022-11-12T09:43:42.288Z,8.44
2022-11-12T09:46:40.231Z,8.43
2022-11-12T09:49:43.219Z,8.54
2022-11-12T09:52:30.156Z,8.52
2022-11-12T09:55:30.705Z,8.59
2022-11-12T09:58:18.397Z,8.66
2022-11-12T10:01:12.295Z,8.70
2022-11-12T10:04:22.850Z,8.77
2022-11-12T10:07:24.885Z,8.85
2022-11-12T10:10:16.348Z,8.91
2022-11-12T10:13:20.436Z,8.98
2022-11-12T10:16:42.755Z,8.96
2022-11-12T10:19:56.357Z,9.00
2022-11-12T10:22:52.244Z,9.05
2022-11-12T10:25:38.895Z,9.18
2022-11-12T10:28:35.619Z,9.34
2022-11-12T10:31:23.362Z,9.31
2022-11-12T10:34:17.047Z,9.47
2022-11-12T10:37:05.879Z,9.68
2022-11-12T10:39:51.704Z,9.59
2022-11-12T10:42:56.688Z,9.63
2022-11-12T10:45:42.500Z,9.68
2022-11-12T10:48:32.604Z,9.66
2022-11-12T10:51:55.589Z,9.75
2022-11-12T10:54:40.573Z,9.89
2022-11-12T10:57:27.404Z,9.84
2022-11-12T11:00:12.560Z,9.92
2022-11-12T11:02:59.049Z,9.99
2022-11-12T11:05:56.221Z,10.10
2022-11-12T11:08:47.438Z,10.07
2022-11-12T11:11:32.869Z,10.16
2022-11-12T11:14:30.293Z,10.27
2022-11-12T11:17:18.112Z,10.29
2022-11-12T11:20:18.589Z,10.30
2022-11-12T11:23:28.111Z,10.39
2022-11-12T11:26:21.739Z,10.43
2022-11-12T11:29:37.601Z,10.45
2022-11-12T11:32:38.439Z,10.61
2022-11-12T11:35:45.550Z,10.56
2022-11-12T11:38:35.037Z,10.51
2022-11-12T11:41:38.393Z,10.50
2022-11-12T11:44:47.000Z,10.43
2022-11-12T11:48:00.469Z,10.41
2022-11-12T11:51:06.665Z,10.51
2022-11-12T11:54:21.067Z,10.60
2022-11-12T11:57:15.665Z,10.52
2022-11-12T12:00:21.662Z,10.72
2022-11-12T12:03:17.937Z,10.80
2022-11-12T12:06:26.321Z,10.73
2022-11-12T12:09:43.854Z,10.76
2022-11-12T12:12:43.201Z,10.81
2022-11-12T12:15:55.842Z,10.83
2022-11-12T12:18:54.969Z,10.83
2022-11-12T12:21:44.850Z,10.98
2022-11-12T12:24:36.769Z,11.11
2022-11-12T12:27:27.095Z,11.13
2022-11-12T12:30:21.680Z,11.17
2022-11-12T12:33:28.545Z,11.15
2022-11-12T12:36:20.098Z,11.10
2022-11-12T12:39:16.656Z,11.20
2022-11-12T12:42:12.593Z,11.30
2022-11-12T12:45:04.996Z,11.27
2022-11-12T12:47:52.453Z,11.34
2022-11-12T12:50:41.640Z,11.41
2022-11-12T12:53:29.940Z,11.43
2022-11-12T12:56:15.238Z,11.45
2022-11-12T12:59:04.410Z,11.34
2022-11-12T13:02:03.629Z,11.30
2022-11-12T13:04:58.660Z,11.38
2022-11-12T13:07:47.385Z,11.41
2022-11-12T13:10:38.832Z,11.36
2022-11-12T13:13:32.457Z,11.43
2022-11-12T13:16:53.727Z,11.58
2022-11-12T13:19:58.689Z,11.73
2022-11-12T13:22:43.632Z,11.75
2022-11-12T13:25:31.613Z,11.79
2022-11-12T13:28:16.749Z,11.65
2022-11-12T13:31:03.831Z,11.80
2022-11-12T13:33:49.068Z,11.76
2022-11-12T13:36:34.165Z,11.80
2022-11-12T13:39:20.547Z,11.67
2022-11-12T13:42:42.245Z,11.71
2022-11-12T13:45:27.973Z,11.68
2022-11-12T13:48:29.913Z,11.73
2022-11-12T13:51:37.378Z,11.80
2022-11-12T13:54:37.507Z,11.68
2022-11-12T13:57:24.049Z,11.70
2022-11-12T14:00:18.158Z,11.62
2022-11-12T14:03:08.226Z,11.61
2022-11-12T14:05:54.390Z,11.64
2022-11-12T14:08:39.641Z,11.64
2022-11-12T14:11:33.767Z,11.62
2022-11-12T14:14:46.558Z,11.59
2022-11-12T14:17:34.520Z,11.54
2022-11-12T14:20:25.779Z,11.55
2022-11-12T14:23:24.566Z,11.68
2022-11-12T14:26:12.827Z,11.58
2022-11-12T14:28:58.122Z,11.66
2022-11-12T14:31:44.225Z,11.58
2022-11-12T14:34:32.895Z,11.47
2022-11-12T14:37:43.236Z,11.41
2022-11-12T14:40:32.169Z,11.39
2022-11-12T14:43:50.153Z,11.39
2022-11-12T14:46:49.809Z,11.36
2022-11-12T14:49:44.834Z,11.32
2022-11-12T14:52:36.110Z,11.23
2022-11-12T14:55:26.611Z,11.26
2022-11-12T14:58:15.762Z,11.22
2022-11-12T15:04:58.080Z,11.07
2022-11-12T15:08:05.249Z,11.06
2022-11-12T15:10:50.697Z,11.08
2022-11-12T15:13:41.743Z,11.03
2022-11-12T15:16:35.117Z,10.99
2022-11-12T15:19:27.745Z,11.03
2022-11-12T15:22:22.865Z,11.00
2022-11-12T15:25:30.969Z,10.97
2022-11-12T15:28:25.067Z,10.94
2022-11-12T15:31:19.650Z,10.92
2022-11-12T15:34:28.278Z,10.85
2022-11-12T15:37:19.738Z,10.83
2022-11-12T15:40:12.545Z,10.73
2022-11-12T15:42:58.152Z,10.73
2022-11-12T15:45:43.564Z,10.68
2022-11-12T15:48:28.622Z,10.65
2022-11-12T15:51:16.387Z,10.63
2022-11-12T15:54:01.861Z,10.63
2022-11-12T15:56:47.675Z,10.63
2022-11-12T15:59:32.959Z,10.62
2022-11-12T16:02:18.210Z,10.59
2022-11-12T16:05:03.756Z,10.58
2022-11-12T16:07:49.010Z,10.56
2022-11-12T16:10:35.244Z,10.53
2022-11-12T16:13:28.159Z,10.50
2022-11-12T16:16:13.928Z,10.44
2022-11-12T16:18:59.143Z,10.42
2022-11-12T16:21:44.433Z,10.45
2022-11-12T16:24:30.026Z,10.41
2022-11-12T16:27:16.011Z,10.37
2022-11-12T16:30:00.888Z,10.46
2022-11-12T16:32:48.283Z,10.41
2022-11-12T16:35:35.388Z,10.39
2022-11-12T16:38:21.454Z,10.38
2022-11-12T16:41:10.701Z,10.35
2022-11-12T16:43:55.773Z,10.28
2022-11-12T16:46:41.710Z,10.26
2022-11-12T16:49:26.993Z,10.31
2022-11-12T16:52:12.271Z,10.36
2022-11-12T16:55:03.053Z,10.33
2022-11-12T16:57:49.809Z,10.24
2022-11-12T17:00:35.246Z,10.27
2022-11-12T17:03:20.121Z,10.29
2022-11-12T17:06:05.612Z,10.23
2022-11-12T17:08:54.488Z,10.19
2022-11-12T17:11:39.800Z,10.26
2022-11-12T17:14:28.356Z,10.22
2022-11-12T17:17:13.858Z,10.28
2022-11-12T17:19:59.941Z,10.25
2022-11-12T17:22:45.228Z,10.28
2022-11-12T17:25:30.435Z,10.19
2022-11-12T17:28:15.611Z,10.25
2022-11-12T17:31:11.726Z,10.23
2022-11-12T17:33:56.888Z,10.25
2022-11-12T17:36:43.772Z,10.17
2022-11-12T17:39:29.416Z,10.20
2022-11-12T17:42:14.582Z,10.14
2022-11-12T17:44:59.845Z,10.13
2022-11-12T17:47:44.920Z,10.10
2022-11-12T17:50:30.287Z,10.08
2022-11-12T17:53:16.177Z,10.08
2022-11-12T17:56:01.862Z,10.07
2022-11-12T17:58:48.452Z,10.07
2022-11-12T18:01:34.384Z,10.08
2022-11-12T18:04:22.401Z,10.08
2022-11-12T18:07:08.944Z,10.09
2022-11-12T18:09:54.503Z,10.15
2022-11-12T18:12:39.789Z,9.99
2022-11-12T18:15:25.216Z,10.06
2022-11-12T18:18:10.532Z,10.11
2022-11-12T18:20:56.474Z,10.00
2022-11-12T18:23:46.537Z,9.92
2022-11-12T18:26:32.872Z,9.82
2022-11-12T18:29:17.882Z,9.87
2022-11-12T18:32:03.299Z,9.87
2022-11-12T18:34:48.604Z,9.85
2022-11-12T18:37:34.581Z,9.92
2022-11-12T18:40:20.632Z,9.94
2022-11-12T18:43:05.764Z,9.94
2022-11-12T18:45:55.782Z,9.91
2022-11-12T18:48:40.768Z,9.93
2022-11-12T18:51:26.128Z,9.87
2022-11-12T18:54:11.269Z,9.83
2022-11-12T18:56:56.553Z,9.76
2022-11-12T18:59:41.894Z,9.65
2022-11-12T19:02:27.265Z,9.93
2022-11-12T19:05:12.601Z,9.79
2022-11-12T19:07:58.072Z,9.85
2022-11-12T19:10:43.303Z,9.80
2022-11-12T19:13:29.536Z,9.87
2022-11-12T19:16:17.646Z,9.82
2022-11-12T19:19:03.034Z,9.90
2022-11-12T19:21:48.878Z,9.81
2022-11-12T19:24:34.150Z,9.73
2022-11-12T19:27:19.879Z,9.75
2022-11-12T19:30:06.861Z,9.78
2022-11-12T19:32:52.447Z,9.72
2022-11-12T19:35:40.977Z,9.70
2022-11-12T19:38:28.055Z,9.72
2022-11-12T19:41:19.378Z,9.73
2022-11-12T19:44:05.371Z,9.76
2022-11-12T19:46:50.646Z,9.67
2022-11-12T19:49:35.743Z,9.71
2022-11-12T19:52:22.006Z,9.67
2022-11-12T19:55:07.775Z,9.64
2022-11-12T19:57:52.836Z,9.67
2022-11-12T20:00:38.283Z,9.59
2022-11-12T20:03:25.800Z,9.59
2022-11-12T20:06:13.973Z,9.63
2022-11-12T20:09:03.824Z,9.63
2022-11-12T20:11:50.622Z,9.63
2022-11-12T20:14:35.906Z,9.64
2022-11-12T20:17:21.571Z,9.64
2022-11-12T20:20:07.478Z,9.57
2022-11-12T20:22:52.648Z,9.45
2022-11-12T20:25:37.872Z,9.51
2022-11-12T20:28:23.405Z,9.45
2022-11-12T20:31:20.464Z,9.39
2022-11-12T20:34:05.725Z,9.28
2022-11-12T20:36:51.061Z,9.29
2022-11-12T20:39:36.467Z,9.32
2022-11-12T20:42:21.423Z,9.16
2022-11-12T20:45:07.036Z,9.28
2022-11-12T20:47:51.952Z,9.20
2022-11-12T20:50:37.291Z,9.07
2022-11-12T20:53:22.403Z,9.12
2022-11-12T20:56:37.129Z,9.23
2022-11-12T20:59:23.317Z,9.18
2022-11-12T21:02:10.171Z,9.10
2022-11-12T21:04:55.784Z,9.05
2022-11-12T21:07:40.869Z,9.02
2022-11-12T21:10:27.026Z,9.02
2022-11-12T21:13:12.007Z,8.91
2022-11-12T21:15:57.489Z,8.87
2022-11-12T21:18:42.934Z,8.96
2022-11-12T21:21:31.596Z,8.95
2022-11-12T21:24:17.337Z,8.90
2022-11-12T21:27:02.500Z,8.84
2022-11-12T21:29:47.754Z,8.84
2022-11-12T21:32:33.014Z,8.88
2022-11-12T21:35:18.325Z,8.85
2022-11-12T21:38:03.591Z,8.81
2022-11-12T21:40:48.743Z,8.79
2022-11-12T21:43:38.601Z,8.74
2022-11-12T21:46:26.825Z,8.62
2022-11-12T21:49:11.931Z,8.62
2022-11-12T21:51:57.134Z,8.66
2022-11-12T21:54:42.414Z,8.63
2022-11-12T21:57:27.582Z,8.72
2022-11-12T22:00:40.545Z,8.66
2022-11-12T22:03:19.112Z,8.65
2022-11-12T22:06:04.869Z,8.52
2022-11-12T22:08:55.080Z,8.54
2022-11-12T22:11:40.303Z,8.48
2022-11-12T22:14:25.467Z,8.40
2022-11-12T22:17:10.916Z,8.53
2022-11-12T22:19:56.245Z,8.48
2022-11-12T22:22:41.483Z,8.42
2022-11-12T22:25:26.906Z,8.48
2022-11-12T22:28:12.043Z,8.40
2022-11-12T22:31:04.130Z,8.31
2022-11-12T22:33:50.237Z,8.40
2022-11-12T22:36:35.339Z,8.22
2022-11-12T22:39:20.489Z,8.41
2022-11-12T22:42:05.892Z,8.32
2022-11-12T22:44:51.134Z,8.37
2022-11-12T22:47:37.101Z,8.21
2022-11-12T22:50:22.420Z,8.20
2022-11-12T22:53:07.616Z,8.20
2022-11-12T22:55:53.004Z,8.18
2022-11-12T22:58:43.580Z,8.17
2022-11-12T23:01:34.344Z,8.25
2022-11-12T23:04:19.722Z,8.22
2022-11-12T23:07:05.192Z,8.17
2022-11-12T23:09:50.289Z,8.05
2022-11-12T23:12:35.868Z,8.04
2022-11-12T23:15:21.044Z,8.07
2022-11-12T23:18:06.508Z,8.00
2022-11-12T23:20:51.795Z,7.96
2022-11-12T23:23:38.088Z,7.96
2022-11-12T23:26:25.193Z,7.98
2022-11-12T23:29:13.537Z,8.01
2022-11-12T23:31:58.401Z,8.01
2022-11-12T23:34:43.698Z,7.89
2022-11-12T23:37:28.811Z,7.97
2022-11-12T23:40:14.379Z,7.93
2022-11-12T23:42:59.605Z,7.91
2022-11-12T23:45:44.672Z,7.86
2022-11-12T23:48:30.441Z,7.86
2022-11-12T23:51:20.895Z,7.85
2022-11-12T23:54:06.225Z,7.85
2022-11-12T23:56:51.638Z,7.80
2022-11-12T23:59:36.959Z,7.58
